Time;durP1;ratioP1;P1;durP2;ratioP2;P2;SDS_P1;SDS_P2;PMS_P1;PMS_P2;Temp;Humidity;BMP_temperature;BMP_pressure;BME280_temperature;BME280_humidity;BME280_pressure;Samples;Min_cycle;Max_cycle;Signal;HPM_P1;HPM_P2
2023/04/07 00:00:18;;;;;;;4.43;4.03;;;7.50;96.10;;;;;;4927769;29;20219;-70
2023/04/07 00:02:45;;;;;;;5.67;3.73;;;7.40;96.20;;;;;;4928911;29;20275;-71
2023/04/07 00:05:12;;;;;;;4.07;3.77;;;7.40;96.30;;;;;;4937004;29;20199;-71
2023/04/07 00:07:41;;;;;;;4.87;3.97;;;7.40;96.30;;;;;;4936223;28;20295;-72
2023/04/07 00:10:08;;;;;;;3.97;3.67;;;7.40;96.40;;;;;;4928727;29;21001;-73
2023/04/07 00:12:35;;;;;;;6.13;3.87;;;7.40;96.30;;;;;;4928707;29;20319;-72
2023/04/07 00:15:03;;;;;;;4.40;3.73;;;7.40;96.40;;;;;;4928983;29;20212;-72
2023/04/07 00:17:30;;;;;;;4.40;4.00;;;7.40;96.30;;;;;;4913750;29;20742;-72
2023/04/07 00:19:56;;;;;;;4.60;4.20;;;7.30;96.60;;;;;;4926559;29;20371;-72
2023/04/07 00:22:23;;;;;;;4.30;3.90;;;7.30;96.50;;;;;;4928795;29;20442;-72
2023/04/07 00:24:51;;;;;;;5.70;3.97;;;7.30;96.60;;;;;;4928710;29;20207;-72
2023/04/07 00:27:18;;;;;;;5.00;4.10;;;7.20;96.80;;;;;;4928611;29;20314;-72
2023/04/07 00:29:46;;;;;;;3.70;3.40;;;7.20;97.10;;;;;;4928257;29;20295;-72
2023/04/07 00:32:13;;;;;;;4.70;3.77;;;7.20;97.00;;;;;;4928126;29;20372;-72
2023/04/07 00:34:39;;;;;;;4.53;3.60;;;7.10;96.90;;;;;;4928055;29;20851;-72
2023/04/07 00:37:06;;;;;;;4.90;4.30;;;7.00;97.10;;;;;;4928100;29;20230;-72
2023/04/07 00:39:33;;;;;;;7.60;4.70;;;7.00;97.50;;;;;;4928557;29;20220;-72
2023/04/07 00:42:03;;;;;;;6.03;5.27;;;7.00;97.90;;;;;;4928586;29;20228;-72
2023/04/07 00:44:30;;;;;;;6.50;5.80;;;6.90;98.50;;;;;;4929196;29;20307;-72
2023/04/07 00:46:58;;;;;;;6.53;5.83;;;6.90;99.30;;;;;;4928524;29;20308;-72
2023/04/07 00:49:29;;;;;;;7.00;6.30;;;6.90;99.90;;;;;;4929710;29;20275;-72
2023/04/07 00:51:57;;;;;;;8.50;5.70;;;6.90;99.90;;;;;;4932491;29;20647;-72
2023/04/07 00:54:24;;;;;;;6.43;5.83;;;6.80;99.90;;;;;;4931881;29;20945;-72
2023/04/07 00:56:52;;;;;;;10.63;6.00;;;6.80;99.90;;;;;;4931357;29;20308;-72
2023/04/07 00:59:21;;;;;;;7.83;5.70;;;6.80;99.90;;;;;;4932191;29;20307;-72
2023/04/07 01:01:56;;;;;;;6.63;5.80;;;6.80;99.90;;;;;;4931805;29;20232;-72
2023/04/07 01:04:29;;;;;;;6.43;5.60;;;6.80;99.90;;;;;;4932072;29;20259;-72
2023/04/07 01:07:06;;;;;;;6.20;5.60;;;6.80;99.90;;;;;;4931906;29;20200;-72
2023/04/07 01:09:41;;;;;;;6.73;6.03;;;6.80;99.90;;;;;;4931798;29;20283;-70
2023/04/07 01:12:15;;;;;;;7.60;6.00;;;6.80;99.90;;;;;;4914483;29;20666;-70
2023/04/07 01:14:50;;;;;;;8.37;5.60;;;6.70;99.90;;;;;;4931857;29;20211;-70
2023/04/07 01:17:19;;;;;;;6.93;5.50;;;6.70;99.90;;;;;;4931072;29;20335;-71
2023/04/07 01:19:53;;;;;;;7.60;6.27;;;6.70;99.90;;;;;;4931249;29;20313;-71
2023/04/07 01:22:26;;;;;;;8.10;6.00;;;6.70;99.90;;;;;;4931506;29;20311;-72
2023/04/07 01:25:11;;;;;;;7.30;5.80;;;6.70;99.90;;;;;;4931927;29;20283;-71
2023/04/07 01:27:49;;;;;;;7.80;6.17;;;6.60;99.90;;;;;;4931027;29;20297;-71
2023/04/07 01:30:19;;;;;;;8.43;5.50;;;6.50;99.90;;;;;;4931115;29;20207;-72
2023/04/07 01:32:50;;;;;;;6.00;5.30;;;6.50;99.90;;;;;;4931432;29;20307;-71
2023/04/07 01:35:19;;;;;;;6.67;5.80;;;6.50;99.90;;;;;;4931334;29;20204;-71
2023/04/07 01:37:47;;;;;;;6.13;5.53;;;6.50;99.90;;;;;;4931013;29;20662;-72
2023/04/07 01:40:15;;;;;;;6.73;6.13;;;6.50;99.90;;;;;;4930887;29;21030;-71
2023/04/07 01:42:44;;;;;;;6.20;5.60;;;6.50;99.90;;;;;;4931089;29;20244;-71
2023/04/07 01:45:12;;;;;;;6.23;5.40;;;6.40;99.90;;;;;;4931410;29;20219;-72
2023/04/07 01:47:41;;;;;;;6.43;5.67;;;6.40;99.90;;;;;;4931212;29;20219;-72
2023/04/07 01:50:10;;;;;;;6.57;5.97;;;6.30;99.90;;;;;;4930841;29;20864;-72
2023/04/07 01:52:38;;;;;;;6.87;5.77;;;6.30;99.90;;;;;;4931348;29;20758;-72
2023/04/07 01:55:06;;;;;;;6.87;5.70;;;6.20;99.90;;;;;;4930495;29;20742;-72
2023/04/07 01:57:33;;;;;;;7.70;5.83;;;6.20;99.90;;;;;;4930646;29;20296;-73
2023/04/07 02:00:00;;;;;;;7.67;5.37;;;6.20;99.90;;;;;;4930688;29;20750;-72
2023/04/07 02:02:28;;;;;;;6.20;5.70;;;6.10;99.90;;;;;;4930665;29;20327;-72
2023/04/07 02:04:59;;;;;;;7.10;6.30;;;6.10;99.90;;;;;;4930822;29;20219;-72
2023/04/07 02:07:34;;;;;;;9.07;5.90;;;6.10;99.90;;;;;;4931061;29;20278;-72
2023/04/07 02:10:03;;;;;;;6.70;5.90;;;6.00;99.90;;;;;;4916144;29;20216;-71
2023/04/07 02:12:32;;;;;;;6.07;5.47;;;6.00;99.90;;;;;;4911919;29;20299;-72
2023/04/07 02:15:01;;;;;;;7.83;5.70;;;6.00;99.90;;;;;;4923764;29;20236;-72
2023/04/07 02:17:29;;;;;;;6.23;5.60;;;6.00;99.90;;;;;;4930143;29;20705;-72
2023/04/07 02:20:01;;;;;;;5.90;5.20;;;6.00;99.90;;;;;;4930193;29;20299;-71
2023/04/07 02:22:28;;;;;;;7.80;6.03;;;6.00;99.90;;;;;;4913908;29;20585;-71
2023/04/07 02:24:55;;;;;;;7.63;5.43;;;6.00;99.90;;;;;;4930067;29;20737;-71
2023/04/07 02:27:22;;;;;;;6.33;5.80;;;5.90;99.90;;;;;;4930336;29;20268;-72
2023/04/07 02:29:49;;;;;;;6.30;5.70;;;5.80;99.90;;;;;;4930242;29;20303;-71
2023/04/07 02:32:17;;;;;;;8.33;6.03;;;5.90;99.90;;;;;;4930486;29;20204;-71
2023/04/07 02:34:44;;;;;;;6.03;5.50;;;5.90;99.90;;;;;;4930171;29;20212;-71
2023/04/07 02:37:12;;;;;;;5.97;5.40;;;5.90;99.90;;;;;;4929831;29;20231;-72
2023/04/07 02:39:39;;;;;;;5.93;5.33;;;5.80;99.90;;;;;;4930469;29;20303;-72
2023/04/07 02:42:06;;;;;;;7.23;5.87;;;5.90;99.90;;;;;;4930025;29;20223;-72
2023/04/07 02:44:33;;;;;;;6.87;5.90;;;5.80;99.90;;;;;;4930227;29;20239;-72
2023/04/07 02:47:00;;;;;;;6.03;5.53;;;5.80;99.90;;;;;;4929390;29;20290;-72
2023/04/07 02:49:26;;;;;;;6.77;6.10;;;5.80;99.90;;;;;;4930821;29;21010;-72
2023/04/07 02:51:53;;;;;;;7.27;6.00;;;5.90;99.90;;;;;;4948908;28;20257;-71
2023/04/07 02:54:22;;;;;;;7.57;5.80;;;5.90;99.90;;;;;;4949291;28;20207;-70
2023/04/07 02:56:49;;;;;;;6.67;5.90;;;5.90;99.90;;;;;;4941527;28;20244;-72
2023/04/07 02:59:15;;;;;;;7.17;5.87;;;5.80;99.90;;;;;;4929704;29;20301;-71
2023/04/07 03:01:42;;;;;;;6.93;6.23;;;5.90;99.90;;;;;;4929691;29;20220;-71
2023/04/07 03:04:09;;;;;;;7.73;5.97;;;5.80;99.90;;;;;;4929570;29;20327;-70
2023/04/07 03:06:36;;;;;;;7.30;6.10;;;5.90;99.90;;;;;;4929352;29;20314;-71
2023/04/07 03:09:03;;;;;;;7.90;6.20;;;5.80;99.90;;;;;;4929520;29;20757;-71
2023/04/07 03:11:32;;;;;;;7.53;6.10;;;5.80;99.90;;;;;;4929436;29;20239;-71
2023/04/07 03:13:58;;;;;;;6.37;5.80;;;5.80;99.90;;;;;;4928301;29;20247;-72
2023/04/07 03:16:25;;;;;;;7.40;6.10;;;5.80;99.90;;;;;;4928902;29;20753;-72
2023/04/07 03:18:52;;;;;;;6.73;6.00;;;5.80;99.90;;;;;;4928697;29;20215;-72
2023/04/07 03:21:19;;;;;;;6.73;6.10;;;5.80;99.90;;;;;;4929271;29;20786;-71
2023/04/07 03:23:46;;;;;;;7.43;6.57;;;5.80;99.90;;;;;;4929099;29;20737;-71
2023/04/07 03:26:13;;;;;;;7.73;6.47;;;5.70;99.90;;;;;;4929223;29;20310;-72
2023/04/07 03:28:41;;;;;;;7.80;6.07;;;5.70;99.90;;;;;;4929407;29;20314;-71
2023/04/07 03:31:08;;;;;;;7.20;6.50;;;5.70;99.90;;;;;;4929003;29;20315;-71
2023/04/07 03:33:35;;;;;;;6.70;5.90;;;5.70;99.90;;;;;;4928711;29;20323;-71
2023/04/07 03:36:02;;;;;;;6.93;6.30;;;5.60;99.90;;;;;;4928819;29;20319;-71
2023/04/07 03:38:29;;;;;;;7.30;6.47;;;5.60;99.90;;;;;;4929090;29;20642;-71
2023/04/07 03:40:56;;;;;;;6.13;5.53;;;5.60;99.90;;;;;;4929248;29;20222;-71
2023/04/07 03:43:23;;;;;;;8.10;6.07;;;5.60;99.90;;;;;;4929151;29;20251;-71
2023/04/07 03:45:53;;;;;;;7.53;6.13;;;5.60;99.90;;;;;;4928776;29;20248;-71
2023/04/07 03:48:20;;;;;;;6.30;5.60;;;5.60;99.90;;;;;;4928946;29;20294;-71
2023/04/07 03:50:47;;;;;;;6.70;6.03;;;5.60;99.90;;;;;;4928740;29;20286;-70
2023/04/07 03:53:15;;;;;;;6.30;5.70;;;5.60;99.90;;;;;;4928919;29;20295;-71
2023/04/07 03:55:43;;;;;;;6.40;5.60;;;5.60;99.90;;;;;;4928880;29;20216;-71
2023/04/07 03:58:10;;;;;;;6.70;5.97;;;5.60;99.90;;;;;;4927249;29;20304;-71
2023/04/07 04:00:37;;;;;;;6.63;6.03;;;5.60;99.90;;;;;;4909824;29;20299;-72
2023/04/07 04:03:05;;;;;;;7.23;5.63;;;5.60;99.90;;;;;;4909690;29;20308;-71
2023/04/07 04:05:32;;;;;;;6.33;5.80;;;5.60;99.90;;;;;;4909688;29;20217;-71
2023/04/07 04:07:59;;;;;;;6.97;6.27;;;5.60;99.90;;;;;;4922530;29;20298;-71
2023/04/07 04:10:26;;;;;;;6.30;5.70;;;5.60;99.90;;;;;;4928636;29;20208;-71
2023/04/07 04:12:59;;;;;;;7.00;6.33;;;5.60;99.90;;;;;;4928587;29;20212;-71
2023/04/07 04:15:26;;;;;;;6.47;5.87;;;5.60;99.90;;;;;;4928849;29;20244;-72
2023/04/07 04:17:53;;;;;;;6.50;5.80;;;5.60;99.90;;;;;;4928581;29;20620;-72
2023/04/07 04:20:22;;;;;;;6.63;6.03;;;5.60;99.90;;;;;;4928688;29;20242;-70
2023/04/07 04:22:49;;;;;;;8.33;6.30;;;5.60;99.90;;;;;;4928541;29;20334;-71
2023/04/07 04:25:16;;;;;;;6.07;5.47;;;5.60;99.90;;;;;;4934430;29;20218;-70
2023/04/07 04:27:43;;;;;;;6.63;5.93;;;5.60;99.90;;;;;;4934666;29;20279;-70
2023/04/07 04:30:11;;;;;;;6.20;5.60;;;5.60;99.90;;;;;;4917575;29;20300;-70
2023/04/07 04:32:38;;;;;;;6.47;5.50;;;5.60;99.90;;;;;;4915550;29;20223;-70
2023/04/07 04:35:06;;;;;;;6.33;5.70;;;5.60;99.90;;;;;;4915465;29;20209;-70
2023/04/07 04:37:34;;;;;;;6.57;5.83;;;5.60;99.90;;;;;;4925021;29;20230;-70
2023/04/07 04:40:01;;;;;;;6.13;5.60;;;5.60;99.90;;;;;;4934670;29;20218;-70
2023/04/07 04:42:30;;;;;;;5.90;5.40;;;5.60;99.90;;;;;;4934773;29;20211;-71
2023/04/07 04:44:57;;;;;;;6.07;5.57;;;5.60;99.90;;;;;;4934667;29;20307;-71
2023/04/07 04:47:24;;;;;;;6.10;5.47;;;5.50;99.90;;;;;;4934521;29;20267;-71
2023/04/07 04:49:51;;;;;;;7.10;5.60;;;5.50;99.90;;;;;;4934730;29;20216;-71
2023/04/07 04:52:18;;;;;;;16.40;5.70;;;5.50;99.90;;;;;;4934813;29;20311;-71
2023/04/07 04:54:46;;;;;;;8.57;5.30;;;5.60;99.90;;;;;;4934739;29;20263;-71
2023/04/07 04:57:13;;;;;;;8.53;5.53;;;5.60;99.90;;;;;;4926855;29;20374;-71
2023/04/07 04:59:41;;;;;;;9.70;5.07;;;5.60;99.90;;;;;;4934859;29;20291;-72
2023/04/07 05:02:08;;;;;;;5.97;5.37;;;5.60;99.90;;;;;;4934269;29;20212;-72
2023/04/07 05:04:35;;;;;;;6.87;5.80;;;5.60;99.90;;;;;;4934444;29;20232;-71
2023/04/07 05:07:02;;;;;;;5.87;5.27;;;5.60;99.90;;;;;;4934102;29;20731;-71
2023/04/07 05:09:29;;;;;;;5.77;5.07;;;5.60;99.90;;;;;;4934390;29;20272;-70
2023/04/07 05:11:57;;;;;;;5.33;4.80;;;5.60;99.90;;;;;;4934112;29;20295;-70
2023/04/07 05:14:25;;;;;;;7.20;5.00;;;5.60;99.90;;;;;;4934581;29;20216;-70
2023/04/07 05:16:53;;;;;;;5.83;5.17;;;5.60;99.90;;;;;;4933941;29;20243;-70
2023/04/07 05:19:20;;;;;;;6.63;5.10;;;5.50;99.90;;;;;;4934014;29;20659;-70
2023/04/07 05:21:47;;;;;;;7.20;5.20;;;5.50;99.90;;;;;;4934207;29;20216;-70
2023/04/07 05:24:14;;;;;;;5.30;4.80;;;5.50;99.90;;;;;;4934211;29;20350;-70
2023/04/07 05:26:40;;;;;;;5.27;4.73;;;5.50;99.90;;;;;;4933995;29;20231;-69
2023/04/07 05:29:09;;;;;;;5.10;4.60;;;5.50;99.90;;;;;;4934019;29;20259;-70
2023/04/07 05:31:36;;;;;;;6.20;5.60;;;5.70;99.90;;;;;;4933908;29;20784;-70
2023/04/07 05:34:03;;;;;;;4.87;4.30;;;5.80;99.90;;;;;;4933924;29;20298;-70
2023/04/07 05:36:30;;;;;;;5.43;4.93;;;5.90;99.90;;;;;;4930720;29;20732;-70
2023/04/07 05:38:57;;;;;;;6.57;5.53;;;5.90;99.90;;;;;;4930526;29;20940;-71
2023/04/07 05:41:24;;;;;;;5.37;4.90;;;6.00;99.90;;;;;;4931199;29;20323;-71
2023/04/07 05:43:53;;;;;;;7.33;5.33;;;6.00;99.90;;;;;;4930466;29;20350;-73
2023/04/07 05:46:21;;;;;;;5.90;5.27;;;6.00;99.90;;;;;;4930750;29;20299;-72
2023/04/07 05:48:48;;;;;;;6.47;5.50;;;5.90;99.90;;;;;;4930477;29;20346;-72
2023/04/07 05:51:15;;;;;;;5.87;5.27;;;5.90;99.90;;;;;;4930879;29;20742;-72
2023/04/07 05:53:42;;;;;;;5.90;5.30;;;5.80;99.90;;;;;;4931086;29;20307;-72
2023/04/07 05:56:09;;;;;;;5.00;4.60;;;5.80;99.90;;;;;;4928731;29;20303;-72
2023/04/07 05:58:36;;;;;;;6.27;5.70;;;5.80;99.90;;;;;;4927253;29;20251;-72
2023/04/07 06:01:03;;;;;;;6.77;5.37;;;5.80;99.90;;;;;;4930986;29;20222;-72
2023/04/07 06:03:31;;;;;;;6.03;5.43;;;5.80;99.90;;;;;;4930503;29;20331;-72
2023/04/07 06:06:01;;;;;;;6.43;5.60;;;5.80;99.90;;;;;;4930940;29;20291;-72
2023/04/07 06:08:27;;;;;;;6.80;5.90;;;5.80;99.90;;;;;;4930759;29;20299;-72
2023/04/07 06:10:56;;;;;;;6.33;5.73;;;5.90;99.90;;;;;;4930433;29;20687;-72
2023/04/07 06:13:23;;;;;;;7.50;5.17;;;5.80;99.90;;;;;;4930266;29;20869;-72
2023/04/07 06:15:50;;;;;;;6.00;5.37;;;5.80;99.90;;;;;;4930741;29;20339;-72
2023/04/07 06:18:17;;;;;;;6.90;6.20;;;5.80;99.90;;;;;;4930024;29;20299;-73
2023/04/07 06:20:45;;;;;;;6.67;5.97;;;5.80;99.90;;;;;;4930383;29;20304;-73
2023/04/07 06:23:12;;;;;;;8.03;5.90;;;5.70;99.90;;;;;;4930286;29;20248;-72
2023/04/07 06:25:41;;;;;;;6.37;5.77;;;5.70;99.90;;;;;;4930613;29;20212;-73
2023/04/07 06:28:08;;;;;;;7.83;5.63;;;5.80;99.90;;;;;;4929896;29;20208;-73
2023/04/07 06:30:40;;;;;;;7.33;6.10;;;5.80;99.90;;;;;;4930435;29;20254;-73
2023/04/07 06:33:07;;;;;;;7.67;6.17;;;5.90;99.90;;;;;;4930402;29;20240;-73
2023/04/07 06:35:34;;;;;;;8.03;6.03;;;6.00;99.90;;;;;;4938821;28;20322;-73
2023/04/07 06:38:02;;;;;;;7.40;6.50;;;6.00;99.90;;;;;;4938967;28;20204;-73
2023/04/07 06:47:13;;;;;;;6.50;5.90;;;6.40;99.90;;;;;;4940888;28;20680;-73
2023/04/07 06:49:40;;;;;;;8.97;6.13;;;6.50;99.90;;;;;;4939529;28;20303;-73
2023/04/07 06:52:07;;;;;;;6.67;6.07;;;6.50;99.90;;;;;;4929648;29;20365;-73
2023/04/07 06:54:35;;;;;;;20.07;6.97;;;6.60;99.90;;;;;;4929877;29;20239;-73
2023/04/07 06:57:02;;;;;;;10.00;6.50;;;6.60;99.90;;;;;;4929313;29;20295;-73
2023/04/07 06:59:29;;;;;;;7.20;6.50;;;6.50;99.90;;;;;;4924381;29;20231;-73
2023/04/07 07:01:56;;;;;;;6.37;5.87;;;6.50;99.90;;;;;;4929731;29;20774;-73
2023/04/07 07:04:23;;;;;;;7.20;6.60;;;6.50;99.90;;;;;;4929408;29;20806;-73
2023/04/07 07:06:50;;;;;;;6.07;5.47;;;6.50;99.90;;;;;;4929778;29;20327;-73
2023/04/07 07:09:17;;;;;;;8.00;5.73;;;6.60;99.90;;;;;;4929792;29;20588;-73
2023/04/07 07:11:45;;;;;;;7.40;6.13;;;6.60;99.90;;;;;;4929320;29;20303;-73
2023/04/07 07:14:12;;;;;;;6.87;6.23;;;6.70;99.90;;;;;;4929789;29;20299;-73
2023/04/07 07:16:40;;;;;;;6.77;5.60;;;6.70;99.90;;;;;;4929292;29;20327;-73
2023/04/07 07:19:06;;;;;;;7.60;5.77;;;6.70;99.90;;;;;;4929093;29;20212;-73
2023/04/07 07:21:33;;;;;;;7.20;5.30;;;6.80;99.90;;;;;;4929186;29;20204;-73
2023/04/07 07:24:00;;;;;;;5.83;5.20;;;6.70;99.90;;;;;;4929099;29;20250;-72
2023/04/07 07:26:27;;;;;;;6.67;5.40;;;6.70;99.90;;;;;;4929286;29;20219;-72
2023/04/07 07:28:55;;;;;;;7.87;5.40;;;6.70;99.90;;;;;;4929489;29;20236;-72
2023/04/07 07:31:22;;;;;;;6.53;5.33;;;6.80;99.90;;;;;;4929038;29;20216;-72
2023/04/07 07:33:50;;;;;;;6.47;5.50;;;6.70;99.90;;;;;;4929080;29;20226;-72
2023/04/07 07:36:17;;;;;;;6.37;5.27;;;6.70;99.90;;;;;;4929384;29;20708;-72
2023/04/07 07:38:44;;;;;;;5.53;5.03;;;6.80;99.90;;;;;;4929167;29;20303;-71
2023/04/07 07:41:11;;;;;;;6.73;4.83;;;6.80;99.90;;;;;;4928395;29;20208;-72
2023/04/07 07:43:38;;;;;;;5.93;5.37;;;6.90;99.90;;;;;;4928127;29;20311;-72
2023/04/07 07:46:06;;;;;;;6.00;5.40;;;6.90;99.90;;;;;;4928421;29;20245;-72
2023/04/07 07:48:33;;;;;;;9.33;5.50;;;7.00;99.90;;;;;;4928196;29;20279;-72
2023/04/07 07:51:00;;;;;;;5.70;4.93;;;7.10;99.90;;;;;;4928325;29;20662;-71
2023/04/07 07:53:27;;;;;;;5.20;4.50;;;7.20;99.90;;;;;;4927913;29;20663;-71
2023/04/07 07:55:54;;;;;;;5.37;4.87;;;7.30;99.90;;;;;;4927855;29;20666;-73
2023/04/07 07:58:21;;;;;;;4.97;4.50;;;7.40;99.90;;;;;;4926890;29;21034;-73
2023/04/07 08:00:48;;;;;;;6.23;4.70;;;7.50;99.90;;;;;;4927855;29;20207;-72
2023/04/07 08:03:18;;;;;;;4.80;4.33;;;7.50;99.90;;;;;;4925136;29;20299;-73
2023/04/07 08:05:45;;;;;;;4.70;4.27;;;7.60;99.90;;;;;;4927759;29;20242;-71
2023/04/07 08:08:12;;;;;;;5.23;4.37;;;7.60;99.90;;;;;;4927919;29;20240;-71
2023/04/07 08:10:39;;;;;;;5.07;4.47;;;7.60;99.90;;;;;;4928130;29;20226;-71
2023/04/07 08:13:06;;;;;;;4.87;4.43;;;7.70;99.90;;;;;;4925634;29;20208;-71
2023/04/07 08:15:33;;;;;;;4.90;4.50;;;7.80;99.90;;;;;;4921854;29;20327;-70
2023/04/07 08:18:03;;;;;;;4.40;4.00;;;7.90;99.90;;;;;;4927193;29;20730;-71
2023/04/07 08:20:31;;;;;;;5.20;4.30;;;7.90;99.90;;;;;;4922676;29;20211;-70
2023/04/07 08:22:58;;;;;;;5.10;4.60;;;8.00;99.90;;;;;;4927083;29;20240;-71
2023/04/07 08:25:25;;;;;;;4.53;3.90;;;8.00;99.90;;;;;;4942040;29;20346;-70
2023/04/07 08:27:52;;;;;;;5.03;4.50;;;8.10;99.90;;;;;;4920772;29;20223;-71
2023/04/07 08:30:20;;;;;;;5.40;4.20;;;8.10;99.90;;;;;;4927139;29;20330;-71
2023/04/07 08:32:47;;;;;;;5.37;4.10;;;8.10;99.90;;;;;;4926439;29;20244;-71
2023/04/07 08:35:14;;;;;;;6.87;4.37;;;8.10;99.90;;;;;;4926318;29;20718;-71
2023/04/07 08:37:43;;;;;;;4.30;3.90;;;8.10;99.90;;;;;;4926709;29;20579;-70
2023/04/07 08:40:11;;;;;;;4.80;4.30;;;8.10;99.90;;;;;;4926169;29;20299;-71
2023/04/07 08:42:42;;;;;;;4.57;3.30;;;8.10;99.60;;;;;;4926218;29;20243;-70
2023/04/07 08:45:10;;;;;;;3.70;3.37;;;8.10;98.70;;;;;;4926331;29;20228;-71
2023/04/07 08:47:39;;;;;;;3.90;3.50;;;8.10;97.80;;;;;;4926513;29;20215;-71
2023/04/07 08:50:08;;;;;;;3.63;3.33;;;8.00;97.30;;;;;;4925881;29;20219;-71
2023/04/07 08:52:41;;;;;;;3.63;3.20;;;8.10;97.10;;;;;;4925524;29;20244;-71
2023/04/07 08:55:10;;;;;;;18.90;4.30;;;8.10;97.10;;;;;;4925891;29;20710;-71
2023/04/07 08:57:38;;;;;;;3.77;3.30;;;8.10;97.00;;;;;;4925660;29;20296;-71
2023/04/07 09:00:06;;;;;;;8.57;3.53;;;8.20;97.00;;;;;;4925637;29;20219;-71
2023/04/07 09:02:34;;;;;;;4.07;3.60;;;8.20;97.40;;;;;;4924877;29;20706;-71
2023/04/07 09:05:03;;;;;;;3.67;3.37;;;8.20;97.10;;;;;;4919527;29;20334;-71
2023/04/07 09:07:31;;;;;;;5.73;3.47;;;8.30;96.90;;;;;;4926175;29;20291;-71
2023/04/07 09:09:58;;;;;;;3.13;2.93;;;8.30;96.90;;;;;;4926668;29;20243;-71
2023/04/07 09:12:28;;;;;;;3.30;3.00;;;8.40;96.30;;;;;;4929389;29;20292;-71
2023/04/07 09:14:55;;;;;;;5.13;2.87;;;8.40;95.80;;;;;;4920513;29;20291;-71
2023/04/07 09:17:22;;;;;;;6.77;3.17;;;8.50;95.60;;;;;;4915555;29;20318;-70
2023/04/07 09:19:52;;;;;;;3.30;2.77;;;8.50;95.30;;;;;;4929131;29;20208;-70
2023/04/07 09:22:34;;;;;;;3.20;2.83;;;8.50;94.90;;;;;;4923999;29;20287;-71
2023/04/07 09:25:10;;;;;;;3.33;2.90;;;8.50;95.10;;;;;;4929624;29;20235;-71
2023/04/07 09:27:39;;;;;;;3.40;3.10;;;8.50;95.10;;;;;;4928984;29;20214;-71
2023/04/07 09:30:14;;;;;;;7.80;3.23;;;8.60;95.40;;;;;;4928890;29;20243;-70
2023/04/07 09:32:42;;;;;;;3.17;2.90;;;8.60;95.40;;;;;;4929428;29;20219;-70
2023/04/07 09:35:10;;;;;;;3.73;2.80;;;8.60;95.00;;;;;;4928610;29;20232;-71
2023/04/07 09:37:38;;;;;;;4.03;3.00;;;8.60;94.70;;;;;;4934206;29;20556;-71
2023/04/07 09:40:06;;;;;;;2.83;2.63;;;8.70;94.90;;;;;;4932100;29;20223;-71
2023/04/07 09:42:35;;;;;;;3.77;3.13;;;8.60;95.10;;;;;;4929217;29;20224;-71
2023/04/07 09:45:04;;;;;;;4.23;2.87;;;8.60;95.00;;;;;;4929171;29;20236;-70
2023/04/07 09:47:32;;;;;;;3.50;3.20;;;8.50;95.30;;;;;;4921216;29;20244;-71
2023/04/07 09:50:05;;;;;;;4.17;3.10;;;8.50;95.60;;;;;;4928630;29;20212;-72
2023/04/07 09:52:50;;;;;;;3.20;2.70;;;8.50;95.70;;;;;;4929154;29;20224;-71
2023/04/07 09:55:19;;;;;;;3.63;2.77;;;8.50;95.30;;;;;;4929564;29;20883;-70
2023/04/07 09:57:46;;;;;;;2.70;2.50;;;8.50;95.00;;;;;;4929579;29;20295;-70
2023/04/07 10:00:15;;;;;;;2.50;2.30;;;8.40;94.70;;;;;;4930043;29;20212;-70
2023/04/07 10:02:42;;;;;;;3.40;3.10;;;8.40;94.60;;;;;;4929696;29;20685;-70
2023/04/07 10:05:10;;;;;;;3.60;2.30;;;8.30;95.00;;;;;;4927862;29;20228;-71
2023/04/07 10:07:39;;;;;;;2.77;2.57;;;8.30;94.80;;;;;;4930165;29;20570;-70
2023/04/07 10:10:08;;;;;;;3.07;2.50;;;8.30;95.00;;;;;;4929237;29;20204;-71
2023/04/07 10:12:37;;;;;;;2.37;2.17;;;8.40;95.10;;;;;;4921763;29;20307;-71
2023/04/07 10:15:05;;;;;;;2.70;2.47;;;8.40;94.90;;;;;;4919417;29;20212;-71
2023/04/07 10:17:36;;;;;;;2.50;2.30;;;8.50;94.90;;;;;;4922765;29;20196;-70
2023/04/07 10:20:07;;;;;;;2.87;2.67;;;8.50;95.00;;;;;;4928830;29;20216;-71
2023/04/07 10:22:35;;;;;;;2.73;2.47;;;8.60;94.90;;;;;;4927474;29;20200;-71
2023/04/07 10:25:06;;;;;;;2.57;2.37;;;8.70;94.60;;;;;;4927853;29;20244;-71
2023/04/07 10:27:36;;;;;;;4.40;2.30;;;8.80;94.50;;;;;;4928234;29;20205;-70
2023/04/07 10:30:06;;;;;;;2.60;2.40;;;8.80;94.60;;;;;;4928680;29;20299;-70
2023/04/07 10:32:47;;;;;;;2.60;2.40;;;8.80;94.70;;;;;;4928165;29;20220;-70
2023/04/07 10:35:14;;;;;;;4.10;2.50;;;8.80;94.50;;;;;;4927275;29;20231;-71
2023/04/07 10:37:41;;;;;;;3.07;2.27;;;8.80;94.40;;;;;;4928588;29;20669;-71
2023/04/07 10:40:28;;;;;;;2.37;2.17;;;8.80;94.50;;;;;;4927977;29;21201;-71
2023/04/07 10:42:56;;;;;;;2.20;2.00;;;8.80;94.40;;;;;;4921360;29;20228;-71
2023/04/07 10:45:58;;;;;;;2.10;1.90;;;8.80;94.50;;;;;;4919937;29;20259;-71
2023/04/07 10:48:31;;;;;;;2.50;2.30;;;8.80;94.60;;;;;;4914510;29;20226;-71
2023/04/07 10:51:15;;;;;;;2.43;2.10;;;8.70;94.40;;;;;;4924916;29;20288;-71
2023/04/07 10:54:22;;;;;;;3.13;1.80;;;8.70;94.70;;;;;;4926820;29;20425;-71
2023/04/07 10:57:10;;;;;;;2.30;2.10;;;8.70;94.90;;;;;;4929550;29;20843;-71
2023/04/07 10:59:38;;;;;;;2.50;2.30;;;8.70;95.10;;;;;;4929567;29;20204;-71
2023/04/07 11:02:33;;;;;;;3.23;2.00;;;8.70;95.00;;;;;;4928624;29;20899;-71
2023/04/07 11:05:02;;;;;;;2.43;2.20;;;8.80;95.70;;;;;;4902427;29;20236;-71
2023/04/07 11:07:49;;;;;;;2.37;2.17;;;8.80;95.60;;;;;;4927348;29;20236;-71
2023/04/07 11:10:18;;;;;;;2.07;1.97;;;8.90;96.30;;;;;;4923267;29;20201;-70
2023/04/07 11:12:58;;;;;;;2.60;2.17;;;8.90;96.30;;;;;;4928381;29;20204;-70
2023/04/07 11:15:25;;;;;;;2.00;1.90;;;9.00;96.70;;;;;;4928617;29;20745;-70
2023/04/07 11:18:17;;;;;;;3.67;2.40;;;9.00;97.30;;;;;;4927824;29;20573;-70
2023/04/07 11:20:48;;;;;;;2.53;2.33;;;9.10;98.80;;;;;;4902779;29;20771;-70
2023/04/07 11:23:16;;;;;;;2.40;2.20;;;9.10;99.90;;;;;;4914310;29;20283;-70
2023/04/07 11:25:45;;;;;;;2.60;2.40;;;9.00;99.90;;;;;;4928370;29;20239;-70
2023/04/07 11:28:13;;;;;;;2.97;2.57;;;9.00;99.90;;;;;;4927402;29;20717;-70
2023/04/07 11:30:48;;;;;;;2.83;2.63;;;8.90;99.90;;;;;;4928157;29;20208;-70
2023/04/07 11:33:17;;;;;;;2.83;2.23;;;8.80;99.90;;;;;;4927783;29;20560;-70
2023/04/07 11:35:56;;;;;;;3.03;2.73;;;8.70;99.90;;;;;;4928852;29;20220;-70
2023/04/07 11:38:26;;;;;;;3.33;2.90;;;8.70;99.90;;;;;;4928818;29;20611;-70
2023/04/07 11:40:53;;;;;;;3.23;3.03;;;8.60;99.90;;;;;;4928541;29;20211;-70
2023/04/07 11:43:22;;;;;;;3.03;2.83;;;8.60;99.90;;;;;;4928214;29;20295;-70
2023/04/07 11:46:06;;;;;;;3.30;3.10;;;8.50;99.90;;;;;;4927845;29;20267;-70
2023/04/07 11:48:34;;;;;;;3.17;2.97;;;8.50;99.90;;;;;;4928466;29;20211;-70
2023/04/07 11:51:04;;;;;;;3.60;3.30;;;8.50;99.90;;;;;;4928532;29;20299;-70
2023/04/07 11:53:31;;;;;;;4.17;2.90;;;8.50;99.90;;;;;;4927957;29;20213;-70
2023/04/07 11:56:02;;;;;;;3.67;3.20;;;8.50;99.90;;;;;;4928345;29;20743;-70
2023/04/07 11:58:29;;;;;;;3.50;3.30;;;8.50;99.90;;;;;;4927773;29;20732;-70
2023/04/07 12:00:57;;;;;;;3.83;3.53;;;8.50;99.90;;;;;;4928254;29;20208;-70
2023/04/07 12:03:24;;;;;;;3.60;3.30;;;8.50;99.90;;;;;;4928292;29;20263;-70
2023/04/07 12:05:51;;;;;;;8.37;3.23;;;8.50;99.90;;;;;;4928074;29;20236;-70
2023/04/07 12:08:20;;;;;;;3.70;3.33;;;8.40;99.90;;;;;;4927849;29;20770;-70
2023/04/07 12:10:47;;;;;;;3.93;3.63;;;8.40;99.90;;;;;;4928125;29;20208;-70
2023/04/07 12:13:14;;;;;;;3.83;3.53;;;8.40;99.90;;;;;;4928038;29;20299;-70
2023/04/07 12:15:41;;;;;;;4.87;3.37;;;8.40;99.90;;;;;;4927749;29;20252;-70
2023/04/07 12:18:08;;;;;;;4.37;3.97;;;8.50;99.90;;;;;;4928122;29;20319;-70
2023/04/07 12:20:35;;;;;;;4.40;4.10;;;8.50;99.90;;;;;;4928077;29;20299;-70
2023/04/07 12:23:02;;;;;;;3.73;3.43;;;8.50;99.90;;;;;;4927340;29;20212;-70
2023/04/07 12:25:30;;;;;;;3.60;3.40;;;8.50;99.90;;;;;;4927905;29;20232;-70
2023/04/07 12:27:57;;;;;;;3.43;3.17;;;8.50;99.90;;;;;;4927679;29;20256;-70
2023/04/07 12:30:24;;;;;;;3.80;3.47;;;8.40;99.90;;;;;;4927856;29;20216;-70
2023/04/07 12:32:51;;;;;;;3.40;3.10;;;8.50;99.90;;;;;;4926845;29;20338;-70
2023/04/07 12:35:18;;;;;;;3.63;3.33;;;8.40;99.90;;;;;;4908748;29;20216;-70
2023/04/07 12:37:46;;;;;;;3.87;3.57;;;8.40;99.90;;;;;;4909094;29;20264;-70
2023/04/07 12:40:14;;;;;;;4.10;3.33;;;8.30;99.90;;;;;;4909411;29;20213;-70
2023/04/07 12:42:42;;;;;;;4.10;3.80;;;8.30;99.90;;;;;;4927574;29;20219;-70
2023/04/07 12:45:10;;;;;;;3.70;3.40;;;8.30;99.90;;;;;;4928697;29;20210;-70
2023/04/07 12:47:37;;;;;;;3.40;3.20;;;8.30;99.90;;;;;;4930824;29;20212;-70
2023/04/07 12:50:04;;;;;;;3.10;2.80;;;8.30;99.90;;;;;;4930483;29;20253;-70
2023/04/07 12:52:31;;;;;;;2.97;2.77;;;8.30;99.90;;;;;;4931212;29;20953;-70
2023/04/07 12:54:58;;;;;;;3.43;2.60;;;8.30;99.90;;;;;;4931174;29;20212;-70
2023/04/07 12:57:26;;;;;;;2.80;2.60;;;8.30;99.90;;;;;;4931344;29;20311;-70
2023/04/07 12:59:54;;;;;;;2.50;2.40;;;8.20;99.90;;;;;;4931208;29;20304;-70
2023/04/07 13:02:21;;;;;;;3.10;2.90;;;8.20;99.90;;;;;;4930898;29;20299;-70
2023/04/07 13:04:48;;;;;;;2.67;2.50;;;8.20;99.90;;;;;;4931007;29;20208;-70
2023/04/07 13:07:15;;;;;;;2.27;2.10;;;8.20;99.90;;;;;;4931120;29;20315;-70
2023/04/07 13:09:43;;;;;;;2.30;2.20;;;8.10;99.90;;;;;;4931534;29;20208;-70
2023/04/07 13:12:11;;;;;;;1.97;1.87;;;8.10;99.90;;;;;;4931007;29;20212;-70